sensor_id;sensor_type;location;lat;lon;timestamp;pressure;altitude;pressure_sealevel;temperature;humidity
54920;BME280;63804;53.120;8.764;2023-02-18T00:01:38;101933.38;;;8.86;44.03
54920;BME280;63804;53.120;8.764;2023-02-18T00:04:04;101934.38;;;8.76;44.05
54920;BME280;63804;53.120;8.764;2023-02-18T00:06:32;101937.63;;;8.78;44.25
54920;BME280;63804;53.120;8.764;2023-02-18T00:08:58;101944.88;;;8.83;44.23
54920;BME280;63804;53.120;8.764;2023-02-18T00:11:27;101946.91;;;8.77;43.97
54920;BME280;63804;53.120;8.764;2023-02-18T00:13:55;101948.31;;;8.88;43.97
54920;BME280;63804;53.120;8.764;2023-02-18T00:16:21;101948.38;;;8.69;44.45
54920;BME280;63804;53.120;8.764;2023-02-18T00:18:47;101941.66;;;8.81;44.16
54920;BME280;63804;53.120;8.764;2023-02-18T00:21:13;101943.47;;;8.85;43.86
54920;BME280;63804;53.120;8.764;2023-02-18T00:23:39;101947.72;;;8.92;43.82
54920;BME280;63804;53.120;8.764;2023-02-18T00:26:11;101942.69;;;8.99;43.67
54920;BME280;63804;53.120;8.764;2023-02-18T00:28:37;101946.69;;;8.87;43.97
54920;BME280;63804;53.120;8.764;2023-02-18T00:31:18;101956.91;;;8.96;43.61
54920;BME280;63804;53.120;8.764;2023-02-18T00:33:43;101960.41;;;8.96;43.72
54920;BME280;63804;53.120;8.764;2023-02-18T00:36:12;101961.25;;;9.11;43.40
54920;BME280;63804;53.120;8.764;2023-02-18T00:38:38;101963.06;;;9.15;43.44
54920;BME280;63804;53.120;8.764;2023-02-18T00:41:04;101958.63;;;9.05;43.47
54920;BME280;63804;53.120;8.764;2023-02-18T00:43:30;101962.44;;;9.04;43.81
54920;BME280;63804;53.120;8.764;2023-02-18T00:45:56;101961.44;;;9.14;43.62
54920;BME280;63804;53.120;8.764;2023-02-18T00:48:21;101960.84;;;9.17;43.59
54920;BME280;63804;53.120;8.764;2023-02-18T00:50:47;101952.56;;;9.22;43.74
54920;BME280;63804;53.120;8.764;2023-02-18T00:53:12;101964.25;;;9.09;43.72
54920;BME280;63804;53.120;8.764;2023-02-18T00:55:42;101959.31;;;9.11;43.89
54920;BME280;63804;53.120;8.764;2023-02-18T00:58:09;101946.50;;;9.25;43.54
54920;BME280;63804;53.120;8.764;2023-02-18T01:00:35;101952.34;;;9.19;43.80
54920;BME280;63804;53.120;8.764;2023-02-18T01:03:00;101945.06;;;9.28;43.53
54920;BME280;63804;53.120;8.764;2023-02-18T01:05:27;101942.03;;;9.30;43.66
54920;BME280;63804;53.120;8.764;2023-02-18T01:07:53;101936.28;;;9.31;43.56
54920;BME280;63804;53.120;8.764;2023-02-18T01:10:18;101934.47;;;9.40;43.57
54920;BME280;63804;53.120;8.764;2023-02-18T01:12:44;101936.50;;;9.35;43.58
54920;BME280;63804;53.120;8.764;2023-02-18T01:15:10;101925.41;;;9.31;43.59
54920;BME280;63804;53.120;8.764;2023-02-18T01:17:38;101926.81;;;9.29;43.81
54920;BME280;63804;53.120;8.764;2023-02-18T01:20:04;101928.31;;;9.35;43.65
54920;BME280;63804;53.120;8.764;2023-02-18T01:22:29;101926.81;;;9.29;43.71
54920;BME280;63804;53.120;8.764;2023-02-18T01:24:55;101929.56;;;9.29;43.98
54920;BME280;63804;53.120;8.764;2023-02-18T01:27:20;101916.22;;;9.27;43.83
54920;BME280;63804;53.120;8.764;2023-02-18T01:29:46;101920.84;;;9.26;43.89
54920;BME280;63804;53.120;8.764;2023-02-18T01:32:11;101912.28;;;9.19;44.13
54920;BME280;63804;53.120;8.764;2023-02-18T01:34:37;101908.97;;;9.22;44.07
54920;BME280;63804;53.120;8.764;2023-02-18T01:37:02;101917.22;;;9.31;44.07
54920;BME280;63804;53.120;8.764;2023-02-18T01:39:27;101915.00;;;9.33;43.76
54920;BME280;63804;53.120;8.764;2023-02-18T01:41:53;101915.81;;;9.34;43.92
54920;BME280;63804;53.120;8.764;2023-02-18T01:46:45;101890.69;;;9.37;44.08
54920;BME280;63804;53.120;8.764;2023-02-18T01:49:16;101885.44;;;9.40;43.74
54920;BME280;63804;53.120;8.764;2023-02-18T01:51:52;101895.00;;;9.38;44.01
54920;BME280;63804;53.120;8.764;2023-02-18T01:54:27;101894.41;;;9.41;43.82
54920;BME280;63804;53.120;8.764;2023-02-18T01:59:30;101892.41;;;9.33;44.08
54920;BME280;63804;53.120;8.764;2023-02-18T02:01:57;101899.69;;;9.23;44.26
54920;BME280;63804;53.120;8.764;2023-02-18T02:04:23;101895.34;;;9.22;44.12
54920;BME280;63804;53.120;8.764;2023-02-18T02:06:49;101901.59;;;9.23;44.31
54920;BME280;63804;53.120;8.764;2023-02-18T02:09:16;101902.31;;;9.29;44.06
54920;BME280;63804;53.120;8.764;2023-02-18T02:31:33;101892.47;;;9.41;43.64
54920;BME280;63804;53.120;8.764;2023-02-18T02:45:01;101891.97;;;9.39;43.78
54920;BME280;63804;53.120;8.764;2023-02-18T02:47:44;101875.03;;;9.42;43.56
54920;BME280;63804;53.120;8.764;2023-02-18T02:50:17;101867.53;;;9.48;43.74
54920;BME280;63804;53.120;8.764;2023-02-18T02:52:51;101864.81;;;9.48;43.58
54920;BME280;63804;53.120;8.764;2023-02-18T02:55:19;101864.00;;;9.48;43.62
54920;BME280;63804;53.120;8.764;2023-02-18T02:57:50;101856.44;;;9.44;43.58
54920;BME280;63804;53.120;8.764;2023-02-18T03:00:19;101836.44;;;9.49;43.69
54920;BME280;63804;53.120;8.764;2023-02-18T03:05:38;101827.25;;;9.59;43.25
54920;BME280;63804;53.120;8.764;2023-02-18T03:11:03;101826.94;;;9.60;43.31
54920;BME280;63804;53.120;8.764;2023-02-18T03:13:50;101822.28;;;9.61;43.47
54920;BME280;63804;53.120;8.764;2023-02-18T03:16:49;101824.09;;;9.66;43.08
54920;BME280;63804;53.120;8.764;2023-02-18T03:19:35;101826.22;;;9.69;42.87
54920;BME280;63804;53.120;8.764;2023-02-18T03:22:24;101817.63;;;9.61;43.13
54920;BME280;63804;53.120;8.764;2023-02-18T03:24:54;101812.81;;;9.58;43.20
54920;BME280;63804;53.120;8.764;2023-02-18T03:27:24;101814.78;;;9.67;43.11
54920;BME280;63804;53.120;8.764;2023-02-18T03:29:55;101807.75;;;9.66;43.31
54920;BME280;63804;53.120;8.764;2023-02-18T03:32:24;101810.97;;;9.68;43.37
54920;BME280;63804;53.120;8.764;2023-02-18T03:34:56;101815.47;;;9.72;43.09
54920;BME280;63804;53.120;8.764;2023-02-18T03:37:24;101811.75;;;9.68;43.03
54920;BME280;63804;53.120;8.764;2023-02-18T03:39:54;101819.50;;;9.75;43.28
54920;BME280;63804;53.120;8.764;2023-02-18T03:42:27;101816.28;;;9.73;43.25
54920;BME280;63804;53.120;8.764;2023-02-18T03:44:53;101809.97;;;9.63;43.84
54920;BME280;63804;53.120;8.764;2023-02-18T03:47:18;101802.28;;;9.66;43.66
54920;BME280;63804;53.120;8.764;2023-02-18T03:49:44;101804.22;;;9.65;43.79
54920;BME280;63804;53.120;8.764;2023-02-18T03:52:09;101798.63;;;9.70;44.06
54920;BME280;63804;53.120;8.764;2023-02-18T03:54:35;101792.38;;;9.70;43.91
54920;BME280;63804;53.120;8.764;2023-02-18T03:57:01;101792.88;;;9.72;44.14
54920;BME280;63804;53.120;8.764;2023-02-18T03:59:27;101795.97;;;9.79;44.18
54920;BME280;63804;53.120;8.764;2023-02-18T04:01:52;101791.44;;;9.74;44.18
54920;BME280;63804;53.120;8.764;2023-02-18T04:04:17;101800.63;;;9.78;44.05
54920;BME280;63804;53.120;8.764;2023-02-18T04:06:43;101797.50;;;9.71;44.28
54920;BME280;63804;53.120;8.764;2023-02-18T04:09:08;101785.50;;;9.72;44.16
54920;BME280;63804;53.120;8.764;2023-02-18T04:11:38;101785.50;;;9.72;44.45
54920;BME280;63804;53.120;8.764;2023-02-18T04:14:04;101784.19;;;9.70;44.26
54920;BME280;63804;53.120;8.764;2023-02-18T04:16:30;101778.25;;;9.68;44.81
54920;BME280;63804;53.120;8.764;2023-02-18T04:19:02;101771.16;;;9.67;44.77
54920;BME280;63804;53.120;8.764;2023-02-18T04:21:27;101773.41;;;9.64;44.54
54920;BME280;63804;53.120;8.764;2023-02-18T04:23:52;101776.25;;;9.59;44.73
54920;BME280;63804;53.120;8.764;2023-02-18T04:26:18;101766.16;;;9.60;45.11
54920;BME280;63804;53.120;8.764;2023-02-18T04:28:43;101763.13;;;9.61;45.11
54920;BME280;63804;53.120;8.764;2023-02-18T04:31:09;101753.44;;;9.55;45.46
54920;BME280;63804;53.120;8.764;2023-02-18T04:33:35;101745.59;;;9.54;45.62
54920;BME280;63804;53.120;8.764;2023-02-18T04:36:01;101743.00;;;9.49;45.90
54920;BME280;63804;53.120;8.764;2023-02-18T04:38:26;101740.44;;;9.52;45.78
54920;BME280;63804;53.120;8.764;2023-02-18T04:40:51;101733.19;;;9.48;46.40
54920;BME280;63804;53.120;8.764;2023-02-18T04:43:17;101729.41;;;9.57;45.94
54920;BME280;63804;53.120;8.764;2023-02-18T04:45:42;101725.59;;;9.58;46.22
54920;BME280;63804;53.120;8.764;2023-02-18T04:48:08;101721.22;;;9.57;46.34
54920;BME280;63804;53.120;8.764;2023-02-18T04:50:33;101727.00;;;9.56;46.23
54920;BME280;63804;53.120;8.764;2023-02-18T04:52:59;101719.50;;;9.61;46.49
54920;BME280;63804;53.120;8.764;2023-02-18T04:55:24;101721.19;;;9.49;46.83
54920;BME280;63804;53.120;8.764;2023-02-18T04:57:49;101724.09;;;9.52;46.75
54920;BME280;63804;53.120;8.764;2023-02-18T05:00:17;101725.38;;;9.55;46.75
54920;BME280;63804;53.120;8.764;2023-02-18T05:02:43;101721.38;;;9.52;46.91
54920;BME280;63804;53.120;8.764;2023-02-18T05:05:09;101713.31;;;9.47;47.02
54920;BME280;63804;53.120;8.764;2023-02-18T05:07:35;101703.34;;;9.42;47.36
54920;BME280;63804;53.120;8.764;2023-02-18T05:10:00;101699.06;;;9.50;47.12
54920;BME280;63804;53.120;8.764;2023-02-18T05:12:26;101694.25;;;9.47;47.43
54920;BME280;63804;53.120;8.764;2023-02-18T05:14:51;101686.59;;;9.58;47.32
54920;BME280;63804;53.120;8.764;2023-02-18T05:17:16;101684.44;;;9.46;47.45
54920;BME280;63804;53.120;8.764;2023-02-18T05:19:42;101682.66;;;9.41;47.64
54920;BME280;63804;53.120;8.764;2023-02-18T05:22:07;101672.06;;;9.40;47.69
54920;BME280;63804;53.120;8.764;2023-02-18T05:24:33;101676.16;;;9.51;47.64
54920;BME280;63804;53.120;8.764;2023-02-18T05:26:58;101683.66;;;9.45;47.90
54920;BME280;63804;53.120;8.764;2023-02-18T05:29:24;101673.69;;;9.41;48.31
54920;BME280;63804;53.120;8.764;2023-02-18T05:31:49;101670.66;;;9.42;48.55
54920;BME280;63804;53.120;8.764;2023-02-18T05:34:14;101669.72;;;9.47;48.55
54920;BME280;63804;53.120;8.764;2023-02-18T05:36:40;101663.66;;;9.50;48.53
54920;BME280;63804;53.120;8.764;2023-02-18T05:39:05;101651.31;;;9.53;48.78
54920;BME280;63804;53.120;8.764;2023-02-18T05:41:31;101639.91;;;9.51;48.76
54920;BME280;63804;53.120;8.764;2023-02-18T05:43:56;101641.00;;;9.41;49.21
54920;BME280;63804;53.120;8.764;2023-02-18T05:46:40;101628.13;;;9.33;49.76
54920;BME280;63804;53.120;8.764;2023-02-18T05:49:05;101619.59;;;9.25;50.05
54920;BME280;63804;53.120;8.764;2023-02-18T05:51:31;101613.53;;;9.29;50.02
54920;BME280;63804;53.120;8.764;2023-02-18T05:53:56;101615.34;;;9.42;49.67
54920;BME280;63804;53.120;8.764;2023-02-18T05:56:22;101613.88;;;9.36;50.04
54920;BME280;63804;53.120;8.764;2023-02-18T05:58:47;101608.56;;;9.31;50.43
54920;BME280;63804;53.120;8.764;2023-02-18T06:01:13;101590.13;;;9.27;50.26
54920;BME280;63804;53.120;8.764;2023-02-18T06:03:38;101593.03;;;9.40;50.21
54920;BME280;63804;53.120;8.764;2023-02-18T06:06:04;101586.63;;;9.36;50.55
54920;BME280;63804;53.120;8.764;2023-02-18T06:08:29;101582.56;;;9.24;50.82
54920;BME280;63804;53.120;8.764;2023-02-18T06:10:55;101580.53;;;9.30;50.84
54920;BME280;63804;53.120;8.764;2023-02-18T06:13:20;101570.28;;;9.36;50.78
54920;BME280;63804;53.120;8.764;2023-02-18T06:15:49;101564.22;;;9.39;50.82
54920;BME280;63804;53.120;8.764;2023-02-18T06:18:14;101563.59;;;9.42;50.56
54920;BME280;63804;53.120;8.764;2023-02-18T06:20:40;101548.66;;;9.39;50.78
54920;BME280;63804;53.120;8.764;2023-02-18T06:23:05;101544.66;;;9.37;50.76
54920;BME280;63804;53.120;8.764;2023-02-18T06:25:31;101534.38;;;9.34;51.01
54920;BME280;63804;53.120;8.764;2023-02-18T06:27:56;101540.63;;;9.34;51.01
54920;BME280;63804;53.120;8.764;2023-02-18T06:30:21;101531.28;;;9.26;51.11
54920;BME280;63804;53.120;8.764;2023-02-18T06:32:47;101536.78;;;9.35;51.10
54920;BME280;63804;53.120;8.764;2023-02-18T06:35:12;101535.50;;;9.33;51.29
54920;BME280;63804;53.120;8.764;2023-02-18T06:37:38;101516.75;;;9.40;51.29
54920;BME280;63804;53.120;8.764;2023-02-18T06:40:04;101525.72;;;9.32;51.19
54920;BME280;63804;53.120;8.764;2023-02-18T06:42:30;101517.41;;;9.37;51.37
54920;BME280;63804;53.120;8.764;2023-02-18T06:44:55;101513.38;;;9.34;51.29
54920;BME280;63804;53.120;8.764;2023-02-18T06:47:21;101508.72;;;9.35;51.41
54920;BME280;63804;53.120;8.764;2023-02-18T06:49:46;101490.16;;;9.37;51.16
54920;BME280;63804;53.120;8.764;2023-02-18T06:52:12;101481.47;;;9.35;51.63
54920;BME280;63804;53.120;8.764;2023-02-18T06:54:37;101481.94;;;9.28;51.80
54920;BME280;63804;53.120;8.764;2023-02-18T06:57:02;101478.44;;;9.27;51.85
54920;BME280;63804;53.120;8.764;2023-02-18T06:59:28;101477.81;;;9.31;51.63
54920;BME280;63804;53.120;8.764;2023-02-18T07:01:53;101458.75;;;9.39;51.42
54920;BME280;63804;53.120;8.764;2023-02-18T07:04:19;101452.81;;;9.37;51.70
54920;BME280;63804;53.120;8.764;2023-02-18T07:06:44;101454.09;;;9.40;51.66
54920;BME280;63804;53.120;8.764;2023-02-18T07:09:09;101448.47;;;9.36;51.70
54920;BME280;63804;53.120;8.764;2023-02-18T07:11:35;101429.72;;;9.35;51.71
54920;BME280;63804;53.120;8.764;2023-02-18T07:14:00;101419.97;;;9.34;51.85
54920;BME280;63804;53.120;8.764;2023-02-18T07:16:26;101405.97;;;9.26;52.08
54920;BME280;63804;53.120;8.764;2023-02-18T07:18:51;101390.47;;;9.36;52.25
54920;BME280;63804;53.120;8.764;2023-02-18T07:21:16;101375.59;;;9.42;51.89
54920;BME280;63804;53.120;8.764;2023-02-18T07:23:42;101379.09;;;9.42;52.12
54920;BME280;63804;53.120;8.764;2023-02-18T07:26:11;101384.53;;;9.51;51.97
54920;BME280;63804;53.120;8.764;2023-02-18T07:28:36;101374.78;;;9.50;52.14
54920;BME280;63804;53.120;8.764;2023-02-18T07:31:02;101376.38;;;9.51;51.90
54920;BME280;63804;53.120;8.764;2023-02-18T07:33:28;101374.13;;;9.53;51.98
54920;BME280;63804;53.120;8.764;2023-02-18T07:35:57;101362.75;;;9.51;52.15
54920;BME280;63804;53.120;8.764;2023-02-18T07:38:24;101351.38;;;9.49;52.35
54920;BME280;63804;53.120;8.764;2023-02-18T07:40:51;101343.84;;;9.46;52.62
54920;BME280;63804;53.120;8.764;2023-02-18T07:43:16;101343.78;;;9.11;53.28
54920;BME280;63804;53.120;8.764;2023-02-18T07:45:42;101336.31;;;9.34;53.07
54920;BME280;63804;53.120;8.764;2023-02-18T07:48:08;101332.78;;;9.51;52.84
54920;BME280;63804;53.120;8.764;2023-02-18T07:50:33;101328.63;;;9.54;52.65
54920;BME280;63804;53.120;8.764;2023-02-18T07:53:03;101320.94;;;9.64;52.62
54920;BME280;63804;53.120;8.764;2023-02-18T07:55:30;101323.50;;;9.70;52.65
54920;BME280;63804;53.120;8.764;2023-02-18T07:58:27;101319.00;;;9.74;52.88
54920;BME280;63804;53.120;8.764;2023-02-18T08:00:54;101302.50;;;9.70;52.77
54920;BME280;63804;53.120;8.764;2023-02-18T08:03:30;101299.75;;;9.79;52.80
54920;BME280;63804;53.120;8.764;2023-02-18T08:05:56;101288.69;;;9.67;53.52
54920;BME280;63804;53.120;8.764;2023-02-18T08:08:25;101288.56;;;9.72;53.14
54920;BME280;63804;53.120;8.764;2023-02-18T08:10:52;101288.88;;;9.70;53.21
54920;BME280;63804;53.120;8.764;2023-02-18T08:13:18;101291.28;;;9.72;53.66
54920;BME280;63804;53.120;8.764;2023-02-18T08:15:44;101279.72;;;9.75;53.53
54920;BME280;63804;53.120;8.764;2023-02-18T08:18:18;101273.09;;;9.93;53.42
54920;BME280;63804;53.120;8.764;2023-02-18T08:20:44;101275.00;;;10.01;53.49
54920;BME280;63804;53.120;8.764;2023-02-18T08:23:12;101267.94;;;10.00;53.90
54920;BME280;63804;53.120;8.764;2023-02-18T08:25:38;101263.47;;;9.96;54.68
54920;BME280;63804;53.120;8.764;2023-02-18T08:28:03;101256.41;;;9.95;55.31
54920;BME280;63804;53.120;8.764;2023-02-18T08:30:29;101254.13;;;10.06;55.31
54920;BME280;63804;53.120;8.764;2023-02-18T08:32:54;101255.19;;;10.22;54.96
54920;BME280;63804;53.120;8.764;2023-02-18T08:35:20;101253.13;;;10.19;55.19
54920;BME280;63804;53.120;8.764;2023-02-18T08:37:45;101248.22;;;10.33;55.27
54920;BME280;63804;53.120;8.764;2023-02-18T08:40:11;101238.25;;;10.37;55.48
54920;BME280;63804;53.120;8.764;2023-02-18T08:42:38;101231.69;;;10.38;55.60
54920;BME280;63804;53.120;8.764;2023-02-18T08:45:04;101226.31;;;10.51;55.59
54920;BME280;63804;53.120;8.764;2023-02-18T08:47:29;101237.63;;;10.62;55.37
54920;BME280;63804;53.120;8.764;2023-02-18T08:49:55;101227.03;;;10.60;55.68
54920;BME280;63804;53.120;8.764;2023-02-18T08:52:21;101234.53;;;10.72;55.34
54920;BME280;63804;53.120;8.764;2023-02-18T08:54:46;101226.91;;;10.86;55.16
54920;BME280;63804;53.120;8.764;2023-02-18T08:57:12;101221.06;;;10.76;56.04
54920;BME280;63804;53.120;8.764;2023-02-18T08:59:37;101221.19;;;10.79;55.92
54920;BME280;63804;53.120;8.764;2023-02-18T09:02:12;101207.56;;;10.70;56.79
54920;BME280;63804;53.120;8.764;2023-02-18T09:04:44;101208.91;;;10.85;55.98
54920;BME280;63804;53.120;8.764;2023-02-18T09:07:09;101215.38;;;10.81;56.59
54920;BME280;63804;53.120;8.764;2023-02-18T09:09:34;101214.66;;;10.92;56.29
54920;BME280;63804;53.120;8.764;2023-02-18T09:12:00;101215.91;;;10.95;56.41
54920;BME280;63804;53.120;8.764;2023-02-18T09:14:25;101203.00;;;11.04;56.04
54920;BME280;63804;53.120;8.764;2023-02-18T09:16:51;101210.25;;;10.79;57.05
54920;BME280;63804;53.120;8.764;2023-02-18T09:19:17;101209.47;;;10.79;56.97
54920;BME280;63804;53.120;8.764;2023-02-18T09:21:43;101195.91;;;11.03;56.40
54920;BME280;63804;53.120;8.764;2023-02-18T09:24:08;101201.25;;;11.00;56.33
54920;BME280;63804;53.120;8.764;2023-02-18T09:26:35;101198.06;;;10.98;56.73
54920;BME280;63804;53.120;8.764;2023-02-18T09:29:00;101193.22;;;10.82;57.40
54920;BME280;63804;53.120;8.764;2023-02-18T09:31:27;101209.13;;;11.01;57.01
54920;BME280;63804;53.120;8.764;2023-02-18T09:33:55;101194.19;;;10.99;57.08
54920;BME280;63804;53.120;8.764;2023-02-18T09:36:22;101189.47;;;10.87;57.42
54920;BME280;63804;53.120;8.764;2023-02-18T09:38:47;101192.34;;;10.90;57.21
54920;BME280;63804;53.120;8.764;2023-02-18T09:41:23;101185.44;;;11.05;57.09
54920;BME280;63804;53.120;8.764;2023-02-18T09:43:54;101189.22;;;11.01;57.06
54920;BME280;63804;53.120;8.764;2023-02-18T09:46:28;101181.94;;;11.05;57.38
54920;BME280;63804;53.120;8.764;2023-02-18T09:48:57;101171.34;;;11.03;57.10
54920;BME280;63804;53.120;8.764;2023-02-18T09:51:24;101174.19;;;11.07;57.03
54920;BME280;63804;53.120;8.764;2023-02-18T09:53:50;101168.16;;;11.01;57.31
54920;BME280;63804;53.120;8.764;2023-02-18T09:56:26;101177.53;;;10.70;58.17
54920;BME280;63804;53.120;8.764;2023-02-18T09:58:53;101198.31;;;11.05;56.87
54920;BME280;63804;53.120;8.764;2023-02-18T10:03:47;101181.38;;;11.11;56.69
54920;BME280;63804;53.120;8.764;2023-02-18T10:06:24;101184.53;;;11.01;57.41
54920;BME280;63804;53.120;8.764;2023-02-18T10:08:51;101183.53;;;11.06;56.87
54920;BME280;63804;53.120;8.764;2023-02-18T10:11:26;101188.34;;;10.88;57.50
54920;BME280;63804;53.120;8.764;2023-02-18T10:13:53;101209.72;;;10.86;57.41
54920;BME280;63804;53.120;8.764;2023-02-18T10:16:19;101189.53;;;10.99;57.15
54920;BME280;63804;53.120;8.764;2023-02-18T10:18:56;101184.41;;;10.77;57.88
54920;BME280;63804;53.120;8.764;2023-02-18T10:21:27;101190.66;;;10.98;57.21
54920;BME280;63804;53.120;8.764;2023-02-18T10:26:28;101182.53;;;11.10;57.45
54920;BME280;63804;53.120;8.764;2023-02-18T10:28:55;101187.72;;;11.03;56.95
54920;BME280;63804;53.120;8.764;2023-02-18T10:31:50;101194.91;;;11.08;57.08
54920;BME280;63804;53.120;8.764;2023-02-18T10:34:45;101188.00;;;11.10;56.96
54920;BME280;63804;53.120;8.764;2023-02-18T10:51:23;101180.97;;;11.22;56.35
54920;BME280;63804;53.120;8.764;2023-02-18T10:53:52;101179.28;;;11.29;56.20
54920;BME280;63804;53.120;8.764;2023-02-18T10:56:39;101195.28;;;11.19;56.78
54920;BME280;63804;53.120;8.764;2023-02-18T11:01:45;101163.31;;;11.19;56.26
54920;BME280;63804;53.120;8.764;2023-02-18T11:04:19;101172.22;;;11.28;55.98
54920;BME280;63804;53.120;8.764;2023-02-18T11:06:50;101170.22;;;11.38;55.93
54920;BME280;63804;53.120;8.764;2023-02-18T11:09:36;101158.94;;;11.39;55.71
54920;BME280;63804;53.120;8.764;2023-02-18T11:12:12;101147.78;;;11.44;55.79
54920;BME280;63804;53.120;8.764;2023-02-18T11:14:45;101170.53;;;11.24;56.30
54920;BME280;63804;53.120;8.764;2023-02-18T11:17:21;101171.97;;;11.21;56.37
54920;BME280;63804;53.120;8.764;2023-02-18T11:19:59;101181.19;;;11.17;56.86
54920;BME280;63804;53.120;8.764;2023-02-18T11:22:33;101170.28;;;10.96;56.97
54920;BME280;63804;53.120;8.764;2023-02-18T11:25:03;101163.44;;;11.23;56.71
54920;BME280;63804;53.120;8.764;2023-02-18T11:27:44;101179.19;;;11.05;57.40
54920;BME280;63804;53.120;8.764;2023-02-18T11:30:37;101173.84;;;11.08;57.03
54920;BME280;63804;53.120;8.764;2023-02-18T11:33:08;101182.56;;;11.23;56.67
54920;BME280;63804;53.120;8.764;2023-02-18T11:35:38;101176.66;;;11.21;56.55
54920;BME280;63804;53.120;8.764;2023-02-18T11:38:23;101175.03;;;11.20;56.92
54920;BME280;63804;53.120;8.764;2023-02-18T11:40:55;101187.94;;;10.98;57.18
54920;BME280;63804;53.120;8.764;2023-02-18T11:43:23;101183.41;;;11.02;56.99
54920;BME280;63804;53.120;8.764;2023-02-18T11:46:12;101198.41;;;10.96;57.48
54920;BME280;63804;53.120;8.764;2023-02-18T11:48:37;101190.41;;;10.91;57.33
54920;BME280;63804;53.120;8.764;2023-02-18T11:51:03;101202.66;;;10.85;57.68
54920;BME280;63804;53.120;8.764;2023-02-18T11:53:34;101184.00;;;11.08;56.96
54920;BME280;63804;53.120;8.764;2023-02-18T11:56:03;101191.31;;;11.16;56.40
54920;BME280;63804;53.120;8.764;2023-02-18T11:58:37;101202.66;;;11.06;56.64
54920;BME280;63804;53.120;8.764;2023-02-18T12:01:05;101179.72;;;10.98;56.96
54920;BME280;63804;53.120;8.764;2023-02-18T12:03:56;101193.72;;;11.18;56.65
54920;BME280;63804;53.120;8.764;2023-02-18T12:06:36;101209.78;;;10.98;56.62
54920;BME280;63804;53.120;8.764;2023-02-18T12:11:42;101221.69;;;10.93;56.68
54920;BME280;63804;53.120;8.764;2023-02-18T12:14:16;101206.84;;;11.03;56.51
54920;BME280;63804;53.120;8.764;2023-02-18T12:58:22;101251.97;;;11.09;56.84
54920;BME280;63804;53.120;8.764;2023-02-18T13:01:01;101241.91;;;11.01;56.73
54920;BME280;63804;53.120;8.764;2023-02-18T13:06:26;101257.41;;;10.88;56.96
54920;BME280;63804;53.120;8.764;2023-02-18T13:09:29;101238.56;;;10.96;56.96
54920;BME280;63804;53.120;8.764;2023-02-18T13:14:31;101251.00;;;11.05;56.15
54920;BME280;63804;53.120;8.764;2023-02-18T13:16:59;101271.34;;;11.17;55.89
54920;BME280;63804;53.120;8.764;2023-02-18T13:19:30;101244.34;;;11.15;55.84
54920;BME280;63804;53.120;8.764;2023-02-18T13:22:00;101251.41;;;11.37;55.08
54920;BME280;63804;53.120;8.764;2023-02-18T13:24:39;101248.69;;;11.37;54.66
54920;BME280;63804;53.120;8.764;2023-02-18T13:27:15;101259.78;;;11.32;54.83
54920;BME280;63804;53.120;8.764;2023-02-18T13:33:07;101250.50;;;11.45;54.14
54920;BME280;63804;53.120;8.764;2023-02-18T13:35:56;101262.72;;;11.27;54.50
54920;BME280;63804;53.120;8.764;2023-02-18T13:40:58;101275.78;;;11.42;54.12
54920;BME280;63804;53.120;8.764;2023-02-18T13:43:32;101258.63;;;11.21;54.42
54920;BME280;63804;53.120;8.764;2023-02-18T13:46:14;101259.13;;;11.35;54.21
54920;BME280;63804;53.120;8.764;2023-02-18T13:51:38;101265.53;;;11.39;53.28
54920;BME280;63804;53.120;8.764;2023-02-18T13:59:19;101283.25;;;11.33;52.88
54920;BME280;63804;53.120;8.764;2023-02-18T14:01:49;101281.06;;;11.47;53.02
54920;BME280;63804;53.120;8.764;2023-02-18T14:12:41;101305.03;;;11.42;53.44
54920;BME280;63804;53.120;8.764;2023-02-18T14:17:46;101310.56;;;11.12;53.89
54920;BME280;63804;53.120;8.764;2023-02-18T14:28:02;101314.44;;;11.32;53.40
54920;BME280;63804;53.120;8.764;2023-02-18T14:30:34;101318.31;;;11.31;53.05
54920;BME280;63804;53.120;8.764;2023-02-18T14:33:02;101315.38;;;11.36;52.50
54920;BME280;63804;53.120;8.764;2023-02-18T14:35:37;101337.91;;;11.33;52.62
54920;BME280;63804;53.120;8.764;2023-02-18T14:49:04;101335.72;;;11.47;51.24
54920;BME280;63804;53.120;8.764;2023-02-18T14:51:33;101332.28;;;11.72;51.04
54920;BME280;63804;53.120;8.764;2023-02-18T14:54:12;101326.69;;;11.68;50.61
54920;BME280;63804;53.120;8.764;2023-02-18T14:57:00;101330.84;;;11.53;50.54
54920;BME280;63804;53.120;8.764;2023-02-18T14:59:33;101349.34;;;11.68;50.50
54920;BME280;63804;53.120;8.764;2023-02-18T15:02:21;101330.31;;;11.60;50.26
54920;BME280;63804;53.120;8.764;2023-02-18T15:04:47;101337.56;;;11.14;50.67
54920;BME280;63804;53.120;8.764;2023-02-18T15:07:18;101346.56;;;11.35;50.93
54920;BME280;63804;53.120;8.764;2023-02-18T15:09:53;101353.13;;;11.43;49.84
54920;BME280;63804;53.120;8.764;2023-02-18T15:12:21;101335.22;;;11.45;50.17
54920;BME280;63804;53.120;8.764;2023-02-18T15:14:50;101367.38;;;11.48;49.75
54920;BME280;63804;53.120;8.764;2023-02-18T15:17:20;101364.06;;;11.64;49.75
54920;BME280;63804;53.120;8.764;2023-02-18T15:19:51;101372.91;;;11.40;49.85
54920;BME280;63804;53.120;8.764;2023-02-18T15:22:19;101368.56;;;11.39;49.88
54920;BME280;63804;53.120;8.764;2023-02-18T15:24:46;101362.06;;;11.31;49.99
54920;BME280;63804;53.120;8.764;2023-02-18T15:27:16;101374.09;;;11.30;49.69
54920;BME280;63804;53.120;8.764;2023-02-18T15:29:43;101383.66;;;11.24;49.66
54920;BME280;63804;53.120;8.764;2023-02-18T15:32:20;101387.25;;;11.07;49.68
54920;BME280;63804;53.120;8.764;2023-02-18T15:34:52;101390.56;;;11.21;49.33
54920;BME280;63804;53.120;8.764;2023-02-18T15:37:18;101383.78;;;11.27;49.50
54920;BME280;63804;53.120;8.764;2023-02-18T15:39:45;101382.03;;;11.23;49.47
54920;BME280;63804;53.120;8.764;2023-02-18T15:42:29;101376.84;;;11.30;48.83